createdAt,value
2023-04-16T00:01:08.153Z,20.43
2023-04-16T00:03:56.010Z,22.90
2023-04-16T00:06:43.532Z,26.97
2023-04-16T00:09:30.953Z,23.37
2023-04-16T00:12:18.319Z,26.60
2023-04-16T00:15:06.022Z,23.63
2023-04-16T00:17:53.409Z,23.30
2023-04-16T00:20:40.805Z,18.30
2023-04-16T00:23:28.181Z,22.00
2023-04-16T00:26:16.057Z,23.03
2023-04-16T00:29:03.410Z,18.53
2023-04-16T00:31:51.273Z,21.87
2023-04-16T00:34:38.638Z,19.63
2023-04-16T00:37:25.989Z,19.77
2023-04-16T00:40:13.339Z,24.63
2023-04-16T00:43:00.707Z,22.33
2023-04-16T00:45:48.121Z,19.37
2023-04-16T00:48:39.244Z,18.83
2023-04-16T00:51:27.056Z,21.47
2023-04-16T00:54:14.431Z,18.17
2023-04-16T00:57:02.236Z,18.83
2023-04-16T00:59:49.605Z,19.17
2023-04-16T01:02:37.342Z,20.07
2023-04-16T01:05:24.773Z,20.10
2023-04-16T01:08:22.043Z,21.97
2023-04-16T01:11:10.751Z,18.40
2023-04-16T01:13:58.119Z,18.97
2023-04-16T01:16:45.584Z,18.13
2023-04-16T01:19:36.107Z,18.87
2023-04-16T01:22:23.502Z,22.50
2023-04-16T01:25:14.482Z,21.80
2023-04-16T01:28:01.811Z,20.10
2023-04-16T01:30:49.227Z,18.40
2023-04-16T01:33:36.584Z,19.50
2023-04-16T01:36:23.908Z,20.07
2023-04-16T01:39:14.127Z,20.90
2023-04-16T01:42:02.286Z,20.80
2023-04-16T01:44:49.714Z,19.67
2023-04-16T01:47:37.199Z,20.10
2023-04-16T01:50:24.604Z,20.33
2023-04-16T01:53:11.942Z,20.27
2023-04-16T01:55:59.354Z,20.37
2023-04-16T01:58:47.252Z,19.17
2023-04-16T02:01:34.663Z,18.77
2023-04-16T02:04:22.018Z,22.30
2023-04-16T02:07:09.654Z,19.67
2023-04-16T02:09:57.928Z,25.93
2023-04-16T02:12:45.390Z,16.90
2023-04-16T02:15:32.787Z,19.47
2023-04-16T02:18:20.178Z,22.57
2023-04-16T02:21:07.764Z,20.63
2023-04-16T02:23:55.266Z,20.20
2023-04-16T02:26:42.659Z,19.07
2023-04-16T02:29:30.242Z,18.43
2023-04-16T02:32:18.209Z,20.60
2023-04-16T02:35:05.786Z,19.43
2023-04-16T02:37:53.142Z,21.97
2023-04-16T02:40:40.567Z,23.87
2023-04-16T02:43:28.044Z,20.13
2023-04-16T02:46:15.400Z,19.30
2023-04-16T02:49:02.766Z,20.97
2023-04-16T02:51:50.264Z,22.63
2023-04-16T02:54:37.684Z,19.00
2023-04-16T02:57:25.010Z,21.60
2023-04-16T03:00:12.857Z,22.13
2023-04-16T03:03:00.317Z,19.57
2023-04-16T03:05:47.971Z,21.40
2023-04-16T03:08:35.378Z,17.17
2023-04-16T03:11:22.717Z,18.27
2023-04-16T03:14:10.390Z,21.23
2023-04-16T03:16:57.989Z,22.00
2023-04-16T03:19:45.380Z,19.10
2023-04-16T03:22:32.727Z,17.83
2023-04-16T03:25:20.302Z,19.33
2023-04-16T03:28:07.650Z,24.00
2023-04-16T03:30:55.146Z,21.67
2023-04-16T03:33:42.576Z,18.97
2023-04-16T03:36:30.055Z,22.63
2023-04-16T03:39:17.392Z,16.67
2023-04-16T03:42:04.764Z,18.43
2023-04-16T03:44:53.564Z,21.90
2023-04-16T03:47:40.963Z,19.23
2023-04-16T03:50:28.376Z,24.77
2023-04-16T03:53:16.020Z,25.37
2023-04-16T03:56:03.400Z,19.60
2023-04-16T03:58:50.714Z,21.50
2023-04-16T04:01:38.090Z,20.40
2023-04-16T04:04:25.672Z,23.20
2023-04-16T04:07:13.110Z,25.60
2023-04-16T04:10:00.552Z,19.63
2023-04-16T04:12:47.910Z,23.13
2023-04-16T04:15:35.351Z,19.73
2023-04-16T04:18:22.781Z,19.23
2023-04-16T04:21:10.425Z,22.17
2023-04-16T04:23:57.789Z,21.97
2023-04-16T04:26:45.255Z,19.87
2023-04-16T04:29:32.643Z,22.03
2023-04-16T04:32:20.085Z,22.40
2023-04-16T04:35:07.689Z,24.70
2023-04-16T04:37:55.061Z,20.10
2023-04-16T04:40:42.430Z,19.63
2023-04-16T04:43:29.777Z,19.13
2023-04-16T04:46:17.191Z,21.13
2023-04-16T04:49:04.717Z,21.80
2023-04-16T04:51:52.157Z,19.27
2023-04-16T04:54:41.537Z,22.30
2023-04-16T04:57:28.907Z,24.83
2023-04-16T05:00:16.479Z,24.97
2023-04-16T05:03:05.782Z,23.17
2023-04-16T05:05:53.295Z,20.83
2023-04-16T05:08:40.688Z,24.63
2023-04-16T05:11:28.064Z,23.00
2023-04-16T05:14:15.417Z,25.50
2023-04-16T05:17:02.908Z,23.13
2023-04-16T05:19:50.377Z,23.57
2023-04-16T05:22:37.757Z,23.90
2023-04-16T05:25:25.307Z,22.40
2023-04-16T05:28:12.722Z,20.80
2023-04-16T05:31:00.284Z,21.53
2023-04-16T05:33:47.726Z,22.83
2023-04-16T05:36:35.182Z,22.73
2023-04-16T05:39:22.558Z,21.13
2023-04-16T05:42:09.924Z,21.63
2023-04-16T05:44:57.268Z,21.67
2023-04-16T05:47:44.765Z,21.20
2023-04-16T05:50:32.112Z,20.77
2023-04-16T05:53:19.530Z,18.87
2023-04-16T05:56:07.099Z,21.93
2023-04-16T05:58:54.457Z,23.43
2023-04-16T06:01:41.803Z,22.90
2023-04-16T06:04:30.926Z,23.73
2023-04-16T06:07:18.353Z,21.07
2023-04-16T06:10:06.051Z,21.13
2023-04-16T06:12:53.413Z,19.07
2023-04-16T06:15:40.802Z,19.47
2023-04-16T06:18:28.237Z,23.33
2023-04-16T06:21:15.708Z,22.27
2023-04-16T06:24:03.088Z,20.43
2023-04-16T06:26:50.465Z,24.83
2023-04-16T06:29:41.408Z,18.90
2023-04-16T06:32:29.336Z,19.60
2023-04-16T06:35:16.851Z,21.17
2023-04-16T06:38:04.243Z,21.33
2023-04-16T06:40:51.708Z,19.50
2023-04-16T06:43:39.090Z,18.03
2023-04-16T06:46:26.475Z,21.30
2023-04-16T06:49:13.873Z,20.87
2023-04-16T06:52:01.763Z,19.77
2023-04-16T06:54:50.275Z,23.13
2023-04-16T06:57:37.826Z,23.10
2023-04-16T07:00:25.409Z,22.40
2023-04-16T07:03:13.021Z,18.43
2023-04-16T07:06:00.549Z,23.10
2023-04-16T07:08:47.905Z,21.43
2023-04-16T07:11:35.541Z,21.07
2023-04-16T07:14:22.929Z,18.83
2023-04-16T07:17:10.396Z,22.67
2023-04-16T07:19:57.779Z,27.00
2023-04-16T07:22:45.262Z,20.07
2023-04-16T07:25:32.627Z,22.33
2023-04-16T07:28:20.228Z,20.97
2023-04-16T07:31:07.682Z,21.80
2023-04-16T07:33:55.052Z,18.77
2023-04-16T07:36:42.414Z,23.50
2023-04-16T07:39:29.760Z,23.40
2023-04-16T07:42:17.157Z,19.97
2023-04-16T07:45:04.710Z,21.77
2023-04-16T07:47:52.127Z,19.30
2023-04-16T07:50:39.535Z,21.57
2023-04-16T07:53:26.875Z,19.27
2023-04-16T07:56:14.231Z,23.80
2023-04-16T07:59:11.097Z,18.53
2023-04-16T08:02:07.227Z,19.27
2023-04-16T08:04:54.781Z,18.03
2023-04-16T08:07:42.250Z,20.43
2023-04-16T08:10:29.600Z,18.63
2023-04-16T08:13:16.999Z,18.87
2023-04-16T08:16:04.509Z,19.67
2023-04-16T08:18:51.865Z,20.00
2023-04-16T08:21:39.553Z,19.57
2023-04-16T08:24:26.937Z,26.50
2023-04-16T08:27:18.608Z,17.23
2023-04-16T08:30:07.267Z,17.57
2023-04-16T08:32:54.807Z,19.47
2023-04-16T08:35:42.233Z,20.87
2023-04-16T08:38:29.601Z,25.23
2023-04-16T08:41:17.065Z,23.73
2023-04-16T08:44:08.266Z,22.27
2023-04-16T08:46:59.202Z,22.97
2023-04-16T08:49:46.721Z,23.33
2023-04-16T08:52:35.381Z,20.67
2023-04-16T08:55:23.702Z,21.03
2023-04-16T08:58:14.770Z,21.47
2023-04-16T09:01:04.228Z,19.53
2023-04-16T09:03:51.931Z,20.17
2023-04-16T09:06:39.499Z,19.03
2023-04-16T09:09:27.547Z,23.03
2023-04-16T09:12:15.040Z,18.37
2023-04-16T09:15:03.593Z,19.57
2023-04-16T09:17:51.025Z,19.17
2023-04-16T09:20:38.978Z,18.73
2023-04-16T09:23:26.351Z,19.67
2023-04-16T09:26:13.773Z,15.37
2023-04-16T09:29:01.710Z,13.07
2023-04-16T09:32:02.807Z,12.30
2023-04-16T09:35:00.620Z,13.53
2023-04-16T09:37:57.999Z,13.40
2023-04-16T09:40:47.253Z,13.80
2023-04-16T09:43:35.536Z,14.60
2023-04-16T09:46:23.075Z,14.03
2023-04-16T09:49:19.614Z,16.07
2023-04-16T09:52:10.066Z,15.67
2023-04-16T09:54:57.400Z,17.07
2023-04-16T09:57:44.760Z,16.80
2023-04-16T10:00:32.129Z,14.97
2023-04-16T10:03:19.658Z,19.47
2023-04-16T10:06:18.467Z,17.93
2023-04-16T10:09:08.488Z,19.77
2023-04-16T10:11:56.408Z,19.27
2023-04-16T10:14:44.004Z,18.53
2023-04-16T10:17:31.965Z,23.07
2023-04-16T10:20:19.505Z,20.87
2023-04-16T10:23:07.088Z,22.30
2023-04-16T10:25:57.502Z,25.37
2023-04-16T10:28:45.837Z,21.50
2023-04-16T10:31:33.364Z,23.03
2023-04-16T10:34:21.345Z,22.17
2023-04-16T10:37:08.693Z,18.47
2023-04-16T10:39:56.106Z,19.43
2023-04-16T10:42:53.953Z,21.03
2023-04-16T10:45:41.400Z,22.33
2023-04-16T10:48:42.091Z,18.90
2023-04-16T10:51:37.079Z,20.97
2023-04-16T10:54:26.360Z,21.37
2023-04-16T10:57:17.716Z,20.77
2023-04-16T11:00:22.064Z,19.37
2023-04-16T11:03:09.631Z,19.13
2023-04-16T11:06:10.523Z,19.50
2023-04-16T11:08:57.899Z,20.97
2023-04-16T11:11:45.488Z,21.37
2023-04-16T11:14:32.847Z,22.43
2023-04-16T11:17:20.981Z,19.57
2023-04-16T11:20:19.001Z,21.40
2023-04-16T11:23:13.137Z,20.03
2023-04-16T11:26:00.981Z,22.40
2023-04-16T11:28:48.309Z,19.33
2023-04-16T11:31:35.737Z,20.33
2023-04-16T11:34:23.150Z,19.87
2023-04-16T11:37:10.877Z,22.43
2023-04-16T11:39:58.222Z,21.17
2023-04-16T11:42:45.770Z,20.67
2023-04-16T11:45:33.217Z,16.20
2023-04-16T11:48:21.113Z,20.23
2023-04-16T11:51:08.579Z,18.63
2023-04-16T11:53:56.193Z,19.43
2023-04-16T11:56:46.776Z,21.43
2023-04-16T11:59:34.223Z,18.63
2023-04-16T12:02:41.227Z,18.10
2023-04-16T12:05:32.674Z,16.90
2023-04-16T12:08:30.800Z,17.03
2023-04-16T12:11:18.385Z,16.30
2023-04-16T12:14:12.264Z,14.33
2023-04-16T12:17:21.758Z,18.43
2023-04-16T12:20:10.832Z,17.33
2023-04-16T12:23:02.065Z,15.13
2023-04-16T12:25:52.537Z,18.23
2023-04-16T12:28:40.233Z,19.90
2023-04-16T12:31:39.925Z,17.87
2023-04-16T12:34:48.080Z,14.63
2023-04-16T12:37:35.313Z,22.67
2023-04-16T12:40:22.671Z,17.63
2023-04-16T12:43:10.478Z,18.47
2023-04-16T12:45:57.857Z,16.90
2023-04-16T12:48:45.240Z,15.90
2023-04-16T12:51:33.257Z,17.93
2023-04-16T12:54:20.632Z,14.40
2023-04-16T12:57:07.942Z,15.20
2023-04-16T12:59:59.055Z,14.23
2023-04-16T13:02:46.707Z,15.73
2023-04-16T13:05:34.579Z,16.67
2023-04-16T13:08:21.934Z,16.93
2023-04-16T13:11:09.765Z,15.40
2023-04-16T13:13:57.196Z,15.33
2023-04-16T13:16:44.618Z,19.40
2023-04-16T13:19:32.222Z,14.87
2023-04-16T13:22:19.618Z,21.43
2023-04-16T13:25:07.291Z,17.80
2023-04-16T13:27:54.700Z,17.77
2023-04-16T13:30:42.113Z,16.70
2023-04-16T13:33:29.581Z,17.00
2023-04-16T13:36:17.012Z,17.17
2023-04-16T13:39:10.645Z,14.80
2023-04-16T13:41:58.235Z,13.67
2023-04-16T13:44:48.779Z,16.70
2023-04-16T13:47:36.728Z,14.77
2023-04-16T13:50:24.199Z,16.07
2023-04-16T13:53:11.749Z,20.73
2023-04-16T13:55:59.368Z,13.83
2023-04-16T13:58:46.757Z,17.30
2023-04-16T14:01:34.207Z,14.60
2023-04-16T14:04:22.379Z,15.60
2023-04-16T14:07:10.189Z,17.70
2023-04-16T14:09:57.532Z,16.17
2023-04-16T14:12:45.211Z,17.07
2023-04-16T14:15:32.576Z,21.30
2023-04-16T14:18:19.910Z,16.43
2023-04-16T14:21:07.267Z,16.57
2023-04-16T14:23:54.648Z,18.53
2023-04-16T14:26:43.550Z,18.73
2023-04-16T14:29:31.245Z,39.43
2023-04-16T14:32:18.633Z,18.50
2023-04-16T14:35:06.560Z,16.70
2023-04-16T14:37:53.960Z,16.27
2023-04-16T14:40:41.376Z,18.07
2023-04-16T14:43:28.846Z,19.17
2023-04-16T14:46:17.675Z,15.57
2023-04-16T14:49:05.474Z,18.47
2023-04-16T14:51:52.939Z,19.60
2023-04-16T14:54:40.373Z,18.03
2023-04-16T14:57:27.751Z,19.43
2023-04-16T15:00:17.508Z,19.13
2023-04-16T15:03:05.160Z,20.30
2023-04-16T15:05:56.032Z,16.90
2023-04-16T15:08:43.405Z,21.30
2023-04-16T15:11:30.773Z,19.97
2023-04-16T15:14:18.108Z,17.33
2023-04-16T15:17:05.608Z,15.80
2023-04-16T15:19:53.581Z,18.30
2023-04-16T15:22:41.236Z,15.63
2023-04-16T15:25:29.020Z,17.90
2023-04-16T15:28:16.489Z,17.20
2023-04-16T15:31:03.946Z,17.63
2023-04-16T15:33:51.494Z,17.63
2023-04-16T15:36:38.959Z,17.03
2023-04-16T15:39:26.581Z,15.10
2023-04-16T15:42:13.937Z,15.00
2023-04-16T15:45:01.553Z,18.90
2023-04-16T15:47:51.289Z,15.93
2023-04-16T15:50:38.829Z,18.90
2023-04-16T15:53:26.464Z,17.13
2023-04-16T15:56:13.861Z,17.57
2023-04-16T15:59:01.372Z,15.83
2023-04-16T16:01:48.857Z,15.87
2023-04-16T16:04:36.445Z,14.40
2023-04-16T16:07:25.140Z,15.97
2023-04-16T16:10:13.174Z,20.53
2023-04-16T16:13:05.342Z,18.23
2023-04-16T16:15:52.755Z,16.87
2023-04-16T16:18:40.579Z,14.97
2023-04-16T16:21:30.212Z,19.37
2023-04-16T16:24:18.249Z,16.73
2023-04-16T16:27:05.970Z,18.13
2023-04-16T16:29:53.349Z,15.23
2023-04-16T16:32:41.076Z,16.70
2023-04-16T16:35:28.571Z,16.63
2023-04-16T16:38:15.972Z,17.40
2023-04-16T16:41:03.329Z,15.07
2023-04-16T16:43:50.968Z,19.43
2023-04-16T16:46:38.396Z,18.37
2023-04-16T16:49:25.859Z,19.87
2023-04-16T16:52:13.297Z,18.60
2023-04-16T16:55:01.920Z,16.80
2023-04-16T16:57:49.503Z,19.20
2023-04-16T17:00:37.225Z,14.23
2023-04-16T17:03:24.736Z,17.80
2023-04-16T17:06:12.384Z,15.73
2023-04-16T17:08:59.767Z,17.07
2023-04-16T17:11:47.132Z,14.17
2023-04-16T17:14:35.206Z,16.27
2023-04-16T17:17:22.677Z,14.87
2023-04-16T17:20:12.134Z,14.60
2023-04-16T17:22:59.534Z,18.87
2023-04-16T17:25:46.908Z,16.40
2023-04-16T17:28:34.248Z,14.60
2023-04-16T17:31:21.874Z,20.30
2023-04-16T17:34:09.496Z,14.77
2023-04-16T17:36:57.070Z,14.93
2023-04-16T17:39:44.410Z,15.23
2023-04-16T17:42:31.727Z,15.93
2023-04-16T17:45:19.175Z,18.30
2023-04-16T17:48:06.750Z,16.37
2023-04-16T17:50:54.247Z,15.93
2023-04-16T17:53:42.634Z,13.87
2023-04-16T17:56:30.129Z,13.13
2023-04-16T17:59:17.609Z,14.27
2023-04-16T18:02:05.102Z,19.40
2023-04-16T18:04:52.714Z,15.07
2023-04-16T18:07:40.308Z,16.30
2023-04-16T18:10:31.379Z,15.90
2023-04-16T18:13:19.088Z,15.80
2023-04-16T18:16:07.542Z,13.77
2023-04-16T18:18:55.029Z,14.80
2023-04-16T18:21:42.672Z,14.07
2023-04-16T18:24:30.080Z,17.40
2023-04-16T18:27:17.420Z,15.90
2023-04-16T18:30:05.235Z,13.37
2023-04-16T18:33:11.451Z,14.43
2023-04-16T18:36:03.642Z,15.23
2023-04-16T18:39:00.955Z,15.30
2023-04-16T18:41:49.736Z,14.90
2023-04-16T18:44:37.111Z,14.13
2023-04-16T18:47:24.698Z,15.13
2023-04-16T18:50:12.041Z,13.47
2023-04-16T18:52:59.657Z,16.23
2023-04-16T18:55:47.209Z,15.23
2023-04-16T18:58:34.644Z,13.40
2023-04-16T19:01:22.072Z,17.13
2023-04-16T19:04:09.655Z,18.73
2023-04-16T19:06:57.009Z,16.67
2023-04-16T19:09:44.368Z,15.13
2023-04-16T19:12:31.984Z,15.03
2023-04-16T19:15:19.403Z,15.07
2023-04-16T19:18:06.762Z,14.73
2023-04-16T19:21:00.682Z,15.17
2023-04-16T19:23:48.900Z,15.43
2023-04-16T19:26:36.296Z,15.60
2023-04-16T19:29:23.778Z,16.17
2023-04-16T19:32:12.319Z,15.60
2023-04-16T19:35:02.460Z,14.43
2023-04-16T19:37:50.455Z,15.40
2023-04-16T19:40:38.258Z,15.27
2023-04-16T19:43:25.732Z,16.03
2023-04-16T19:46:14.050Z,20.60
2023-04-16T19:49:01.426Z,16.37
2023-04-16T19:51:48.828Z,17.70
2023-04-16T19:54:37.180Z,17.53
2023-04-16T19:57:24.551Z,15.30
2023-04-16T20:00:12.290Z,20.33
2023-04-16T20:02:59.749Z,16.33
2023-04-16T20:05:49.565Z,16.37
2023-04-16T20:08:36.989Z,15.77
2023-04-16T20:11:24.406Z,17.60
2023-04-16T20:14:11.995Z,16.90
2023-04-16T20:16:59.473Z,19.90
2023-04-16T20:19:50.994Z,18.93
2023-04-16T20:22:41.531Z,16.40
2023-04-16T20:25:29.252Z,17.00
2023-04-16T20:28:18.028Z,17.10
2023-04-16T20:31:05.393Z,15.87
2023-04-16T20:33:52.765Z,17.97
2023-04-16T20:36:40.341Z,16.17
2023-04-16T20:39:27.777Z,18.00
2023-04-16T20:42:15.130Z,18.57
2023-04-16T20:45:02.497Z,15.33
2023-04-16T20:47:49.908Z,17.70
2023-04-16T20:50:37.323Z,17.40
2023-04-16T20:53:24.686Z,17.80
2023-04-16T20:56:14.652Z,20.33
2023-04-16T20:59:02.868Z,16.10
2023-04-16T21:01:50.374Z,14.30
2023-04-16T21:04:37.904Z,17.07
2023-04-16T21:07:25.406Z,16.77
2023-04-16T21:10:17.309Z,18.50
2023-04-16T21:13:04.662Z,16.83
2023-04-16T21:15:52.134Z,18.10
2023-04-16T21:18:39.458Z,18.23
2023-04-16T21:21:27.453Z,18.63
2023-04-16T21:24:14.789Z,13.30
2023-04-16T21:27:02.264Z,18.87
2023-04-16T21:29:50.133Z,14.20
2023-04-16T21:32:37.575Z,15.47
2023-04-16T21:35:24.988Z,12.77
2023-04-16T21:38:12.359Z,14.70
2023-04-16T21:40:59.706Z,16.90
2023-04-16T21:43:47.020Z,15.97
2023-04-16T21:46:34.413Z,17.93
2023-04-16T21:49:21.804Z,16.43
2023-04-16T21:52:14.165Z,14.93
2023-04-16T21:55:02.362Z,19.07
2023-04-16T21:57:49.760Z,18.67
2023-04-16T22:00:37.141Z,15.47
2023-04-16T22:03:30.141Z,19.47
2023-04-16T22:06:18.117Z,15.63
2023-04-16T22:09:05.527Z,19.30
2023-04-16T22:11:52.947Z,17.53
2023-04-16T22:14:46.259Z,21.50
2023-04-16T22:17:37.070Z,23.00
2023-04-16T22:20:24.748Z,20.63
2023-04-16T22:23:12.082Z,20.87
2023-04-16T22:25:59.446Z,25.97
2023-04-16T22:28:47.226Z,19.60
2023-04-16T22:31:34.652Z,28.03
2023-04-16T22:34:22.058Z,20.93
2023-04-16T22:37:09.391Z,20.63
2023-04-16T22:39:56.749Z,19.47
2023-04-16T22:42:44.130Z,23.60
2023-04-16T22:45:31.592Z,22.47
2023-04-16T22:48:18.904Z,23.13
2023-04-16T22:51:07.858Z,24.27
2023-04-16T22:53:55.302Z,24.10
2023-04-16T22:56:42.742Z,22.80
2023-04-16T22:59:30.936Z,24.40
2023-04-16T23:02:18.734Z,23.20
2023-04-16T23:05:06.401Z,21.50
2023-04-16T23:07:53.773Z,23.70
2023-04-16T23:10:41.112Z,27.67
2023-04-16T23:13:28.427Z,24.90
2023-04-16T23:16:15.948Z,24.27
2023-04-16T23:19:03.326Z,20.93
2023-04-16T23:21:50.947Z,26.67
2023-04-16T23:24:38.338Z,23.60
2023-04-16T23:27:26.168Z,22.90
2023-04-16T23:30:13.675Z,25.70
2023-04-16T23:33:01.152Z,20.60
2023-04-16T23:35:48.532Z,27.87
2023-04-16T23:38:35.884Z,25.40
2023-04-16T23:41:23.615Z,26.90
2023-04-16T23:44:10.970Z,25.93
2023-04-16T23:46:58.432Z,23.53
2023-04-16T23:49:45.805Z,21.53
2023-04-16T23:52:33.132Z,25.87
2023-04-16T23:55:20.635Z,26.40
2023-04-16T23:58:07.977Z,25.03
